sensor_id;sensor_type;location;lat;lon;timestamp;pressure;altitude;pressure_sealevel;temperature;humidity
73651;BME280;61944;52.538;6.108;2023-08-31T00:01:35;100581.31;;;13.76;100.00
73651;BME280;61944;52.538;6.108;2023-08-31T00:04:00;100574.13;;;13.60;100.00
73651;BME280;61944;52.538;6.108;2023-08-31T00:06:26;100576.56;;;13.58;100.00
73651;BME280;61944;52.538;6.108;2023-08-31T00:08:51;100571.75;;;13.48;100.00
73651;BME280;61944;52.538;6.108;2023-08-31T00:11:17;100565.34;;;13.44;100.00
73651;BME280;61944;52.538;6.108;2023-08-31T00:13:42;100566.09;;;13.59;100.00
73651;BME280;61944;52.538;6.108;2023-08-31T00:16:08;100570.53;;;13.56;100.00
73651;BME280;61944;52.538;6.108;2023-08-31T00:18:35;100570.94;;;13.58;100.00
73651;BME280;61944;52.538;6.108;2023-08-31T00:21:01;100574.09;;;13.68;100.00
73651;BME280;61944;52.538;6.108;2023-08-31T00:23:27;100572.13;;;13.57;100.00
73651;BME280;61944;52.538;6.108;2023-08-31T00:25:52;100578.09;;;13.74;100.00
73651;BME280;61944;52.538;6.108;2023-08-31T00:28:19;100584.16;;;13.65;100.00
73651;BME280;61944;52.538;6.108;2023-08-31T00:30:44;100582.19;;;13.58;100.00
73651;BME280;61944;52.538;6.108;2023-08-31T00:33:11;100572.91;;;13.61;100.00
73651;BME280;61944;52.538;6.108;2023-08-31T00:35:36;100572.16;;;13.50;100.00
73651;BME280;61944;52.538;6.108;2023-08-31T00:38:02;100574.19;;;13.39;100.00
73651;BME280;61944;52.538;6.108;2023-08-31T00:40:30;100579.75;;;13.60;100.00
73651;BME280;61944;52.538;6.108;2023-08-31T00:42:56;100590.97;;;13.71;100.00
73651;BME280;61944;52.538;6.108;2023-08-31T00:45:23;100593.81;;;13.60;100.00
73651;BME280;61944;52.538;6.108;2023-08-31T00:47:49;100602.25;;;13.64;100.00
73651;BME280;61944;52.538;6.108;2023-08-31T00:50:18;100599.91;;;13.37;100.00
73651;BME280;61944;52.538;6.108;2023-08-31T00:52:44;100600.72;;;13.31;100.00
73651;BME280;61944;52.538;6.108;2023-08-31T00:55:10;100601.47;;;13.38;100.00
73651;BME280;61944;52.538;6.108;2023-08-31T00:57:35;100593.47;;;13.22;100.00
73651;BME280;61944;52.538;6.108;2023-08-31T01:00:01;100575.78;;;13.18;100.00
73651;BME280;61944;52.538;6.108;2023-08-31T01:02:39;100561.38;;;12.95;100.00
73651;BME280;61944;52.538;6.108;2023-08-31T01:10:37;100550.09;;;13.16;100.00
73651;BME280;61944;52.538;6.108;2023-08-31T01:13:12;100540.47;;;13.07;100.00
73651;BME280;61944;52.538;6.108;2023-08-31T01:15:46;100551.28;;;13.15;100.00
73651;BME280;61944;52.538;6.108;2023-08-31T01:18:16;100542.88;;;13.12;100.00
73651;BME280;61944;52.538;6.108;2023-08-31T01:20:55;100546.91;;;13.29;100.00
73651;BME280;61944;52.538;6.108;2023-08-31T01:23:30;100530.81;;;13.44;100.00
73651;BME280;61944;52.538;6.108;2023-08-31T01:26:01;100533.22;;;13.27;100.00
73651;BME280;61944;52.538;6.108;2023-08-31T01:28:27;100539.28;;;13.11;100.00
73651;BME280;61944;52.538;6.108;2023-08-31T01:30:52;100544.47;;;13.27;100.00
73651;BME280;61944;52.538;6.108;2023-08-31T01:33:17;100542.03;;;13.26;100.00
73651;BME280;61944;52.538;6.108;2023-08-31T01:35:47;100546.09;;;13.35;100.00
73651;BME280;61944;52.538;6.108;2023-08-31T01:38:21;100540.47;;;13.25;100.00
73651;BME280;61944;52.538;6.108;2023-08-31T01:41:04;100540.06;;;13.37;100.00
73651;BME280;61944;52.538;6.108;2023-08-31T01:43:31;100539.66;;;13.31;100.00
73651;BME280;61944;52.538;6.108;2023-08-31T01:45:59;100538.84;;;13.41;100.00
73651;BME280;61944;52.538;6.108;2023-08-31T01:48:25;100539.25;;;13.47;100.00
73651;BME280;61944;52.538;6.108;2023-08-31T01:50:50;100528.03;;;13.29;100.00
73651;BME280;61944;52.538;6.108;2023-08-31T01:53:15;100520.41;;;13.08;100.00
73651;BME280;61944;52.538;6.108;2023-08-31T01:55:41;100526.84;;;13.05;100.00
73651;BME280;61944;52.538;6.108;2023-08-31T01:58:06;100517.22;;;12.99;100.00
73651;BME280;61944;52.538;6.108;2023-08-31T02:00:32;100515.19;;;13.07;100.00
73651;BME280;61944;52.538;6.108;2023-08-31T02:03:00;100517.63;;;12.90;100.00
73651;BME280;61944;52.538;6.108;2023-08-31T02:05:26;100530.06;;;13.07;100.00
73651;BME280;61944;52.538;6.108;2023-08-31T02:07:51;100525.22;;;13.04;100.00
73651;BME280;61944;52.538;6.108;2023-08-31T02:10:16;100524.47;;;12.71;100.00
73651;BME280;61944;52.538;6.108;2023-08-31T02:12:42;100528.88;;;12.87;100.00
73651;BME280;61944;52.538;6.108;2023-08-31T02:15:08;100534.88;;;12.74;100.00
73651;BME280;61944;52.538;6.108;2023-08-31T02:17:34;100534.06;;;12.77;100.00
73651;BME280;61944;52.538;6.108;2023-08-31T02:20:00;100534.88;;;12.60;100.00
73651;BME280;61944;52.538;6.108;2023-08-31T02:22:26;100535.69;;;12.71;100.00
73651;BME280;61944;52.538;6.108;2023-08-31T02:24:52;100532.47;;;12.76;100.00
73651;BME280;61944;52.538;6.108;2023-08-31T02:27:17;100534.47;;;12.83;100.00
73651;BME280;61944;52.538;6.108;2023-08-31T02:29:43;100538.09;;;12.76;100.00
73651;BME280;61944;52.538;6.108;2023-08-31T02:32:08;100546.13;;;12.67;100.00
73651;BME280;61944;52.538;6.108;2023-08-31T02:34:34;100535.69;;;12.64;100.00
73651;BME280;61944;52.538;6.108;2023-08-31T02:36:59;100538.88;;;12.88;100.00
73651;BME280;61944;52.538;6.108;2023-08-31T02:39:25;100541.31;;;12.89;100.00
73651;BME280;61944;52.538;6.108;2023-08-31T02:41:50;100545.31;;;12.92;100.00
73651;BME280;61944;52.538;6.108;2023-08-31T02:44:15;100535.69;;;12.78;100.00
73651;BME280;61944;52.538;6.108;2023-08-31T02:46:41;100550.13;;;12.59;100.00
73651;BME280;61944;52.538;6.108;2023-08-31T02:49:06;100549.31;;;12.55;100.00
73651;BME280;61944;52.538;6.108;2023-08-31T02:51:32;100542.91;;;12.65;100.00
73651;BME280;61944;52.538;6.108;2023-08-31T02:53:57;100544.50;;;12.63;100.00
73651;BME280;61944;52.538;6.108;2023-08-31T02:56:22;100546.91;;;12.68;100.00
73651;BME280;61944;52.538;6.108;2023-08-31T02:58:48;100550.94;;;12.70;100.00
73651;BME280;61944;52.538;6.108;2023-08-31T03:01:13;100534.88;;;12.71;100.00
73651;BME280;61944;52.538;6.108;2023-08-31T03:03:40;100538.09;;;12.69;100.00
73651;BME280;61944;52.538;6.108;2023-08-31T03:06:07;100541.31;;;12.71;100.00
73651;BME280;61944;52.538;6.108;2023-08-31T03:08:33;100542.91;;;12.58;100.00
73651;BME280;61944;52.538;6.108;2023-08-31T03:10:58;100540.06;;;12.44;100.00
73651;BME280;61944;52.538;6.108;2023-08-31T03:13:24;100542.09;;;12.57;100.00
73651;BME280;61944;52.538;6.108;2023-08-31T03:15:49;100534.88;;;12.60;100.00
73651;BME280;61944;52.538;6.108;2023-08-31T03:18:15;100535.28;;;12.55;100.00
73651;BME280;61944;52.538;6.108;2023-08-31T03:20:40;100544.91;;;12.68;100.00
73651;BME280;61944;52.538;6.108;2023-08-31T03:23:05;100542.13;;;12.61;100.00
73651;BME280;61944;52.538;6.108;2023-08-31T03:25:31;100546.53;;;12.76;100.00
73651;BME280;61944;52.538;6.108;2023-08-31T03:27:56;100549.72;;;12.78;100.00
73651;BME280;61944;52.538;6.108;2023-08-31T03:30:22;100551.72;;;12.60;100.00
73651;BME280;61944;52.538;6.108;2023-08-31T03:32:47;100553.34;;;12.68;100.00
73651;BME280;61944;52.538;6.108;2023-08-31T03:35:13;100547.31;;;12.45;100.00
73651;BME280;61944;52.538;6.108;2023-08-31T03:37:38;100537.25;;;12.29;100.00
73651;BME280;61944;52.538;6.108;2023-08-31T03:40:04;100537.25;;;12.29;100.00
73651;BME280;61944;52.538;6.108;2023-08-31T03:42:31;100538.47;;;12.32;100.00
73651;BME280;61944;52.538;6.108;2023-08-31T03:44:56;100530.03;;;12.28;100.00
73651;BME280;61944;52.538;6.108;2023-08-31T03:47:22;100534.84;;;12.31;100.00
73651;BME280;61944;52.538;6.108;2023-08-31T03:49:47;100541.28;;;12.50;100.00
73651;BME280;61944;52.538;6.108;2023-08-31T03:52:13;100541.28;;;12.35;100.00
73651;BME280;61944;52.538;6.108;2023-08-31T03:54:38;100531.66;;;12.40;100.00
73651;BME280;61944;52.538;6.108;2023-08-31T03:57:04;100528.84;;;12.44;100.00
73651;BME280;61944;52.538;6.108;2023-08-31T03:59:29;100531.66;;;12.51;100.00
73651;BME280;61944;52.538;6.108;2023-08-31T04:01:55;100535.66;;;12.35;100.00
73651;BME280;61944;52.538;6.108;2023-08-31T04:04:20;100536.44;;;12.32;100.00
73651;BME280;61944;52.538;6.108;2023-08-31T04:06:46;100554.09;;;12.44;100.00
73651;BME280;61944;52.538;6.108;2023-08-31T04:09:11;100542.47;;;12.31;100.00
73651;BME280;61944;52.538;6.108;2023-08-31T04:11:36;100552.53;;;12.46;100.00
73651;BME280;61944;52.538;6.108;2023-08-31T04:14:02;100552.13;;;12.51;100.00
73651;BME280;61944;52.538;6.108;2023-08-31T04:16:27;100552.50;;;12.32;100.00
73651;BME280;61944;52.538;6.108;2023-08-31T04:18:54;100558.91;;;12.32;100.00
73651;BME280;61944;52.538;6.108;2023-08-31T04:21:20;100554.13;;;12.40;100.00
73651;BME280;61944;52.538;6.108;2023-08-31T04:23:45;100572.16;;;12.60;100.00
73651;BME280;61944;52.538;6.108;2023-08-31T04:26:12;100566.94;;;12.52;100.00
73651;BME280;61944;52.538;6.108;2023-08-31T04:28:39;100572.16;;;12.50;100.00
73651;BME280;61944;52.538;6.108;2023-08-31T04:31:05;100574.97;;;12.53;100.00
73651;BME280;61944;52.538;6.108;2023-08-31T04:33:30;100571.38;;;12.56;100.00
73651;BME280;61944;52.538;6.108;2023-08-31T04:35:56;100575.38;;;12.55;100.00
73651;BME280;61944;52.538;6.108;2023-08-31T04:38:21;100581.38;;;12.54;100.00
73651;BME280;61944;52.538;6.108;2023-08-31T04:40:48;100577.81;;;12.57;100.00
73651;BME280;61944;52.538;6.108;2023-08-31T04:43:13;100583.41;;;12.60;100.00
73651;BME280;61944;52.538;6.108;2023-08-31T04:45:38;100580.59;;;12.57;100.00
73651;BME280;61944;52.538;6.108;2023-08-31T04:48:04;100572.59;;;12.59;100.00
73651;BME280;61944;52.538;6.108;2023-08-31T04:50:29;100569.78;;;12.59;100.00
73651;BME280;61944;52.538;6.108;2023-08-31T04:52:55;100578.19;;;12.48;100.00
73651;BME280;61944;52.538;6.108;2023-08-31T04:55:21;100577.38;;;12.58;100.00
73651;BME280;61944;52.538;6.108;2023-08-31T04:57:47;100577.78;;;12.60;100.00
73651;BME280;61944;52.538;6.108;2023-08-31T05:00:13;100583.44;;;12.71;100.00
73651;BME280;61944;52.538;6.108;2023-08-31T05:02:38;100587.03;;;12.68;100.00
73651;BME280;61944;52.538;6.108;2023-08-31T05:05:05;100591.81;;;12.43;100.00
73651;BME280;61944;52.538;6.108;2023-08-31T05:07:30;100589.44;;;12.59;100.00
73651;BME280;61944;52.538;6.108;2023-08-31T05:09:56;100594.25;;;12.55;100.00
73651;BME280;61944;52.538;6.108;2023-08-31T05:12:21;100601.06;;;12.61;100.00
73651;BME280;61944;52.538;6.108;2023-08-31T05:14:47;100593.44;;;12.58;100.00
73651;BME280;61944;52.538;6.108;2023-08-31T05:17:12;100601.47;;;12.70;100.00
73651;BME280;61944;52.538;6.108;2023-08-31T05:19:38;100604.66;;;12.58;100.00
73651;BME280;61944;52.538;6.108;2023-08-31T05:22:03;100606.28;;;12.59;100.00
73651;BME280;61944;52.538;6.108;2023-08-31T05:24:29;100617.50;;;12.63;100.00
73651;BME280;61944;52.538;6.108;2023-08-31T05:26:54;100618.31;;;12.59;100.00
73651;BME280;61944;52.538;6.108;2023-08-31T05:29:19;100617.91;;;12.68;100.00
73651;BME280;61944;52.538;6.108;2023-08-31T05:31:45;100623.94;;;12.70;100.00
73651;BME280;61944;52.538;6.108;2023-08-31T05:34:10;100631.97;;;12.61;100.00
73651;BME280;61944;52.538;6.108;2023-08-31T05:36:36;100630.75;;;12.62;100.00
73651;BME280;61944;52.538;6.108;2023-08-31T05:39:02;100635.94;;;12.56;100.00
73651;BME280;61944;52.538;6.108;2023-08-31T05:41:28;100628.72;;;12.63;100.00
73651;BME280;61944;52.538;6.108;2023-08-31T05:43:53;100635.56;;;12.69;100.00
73651;BME280;61944;52.538;6.108;2023-08-31T05:46:18;100636.38;;;12.62;100.00
73651;BME280;61944;52.538;6.108;2023-08-31T05:48:44;100639.16;;;12.62;100.00
73651;BME280;61944;52.538;6.108;2023-08-31T05:51:10;100642.38;;;12.60;100.00
73651;BME280;61944;52.538;6.108;2023-08-31T05:53:35;100645.59;;;12.66;100.00
73651;BME280;61944;52.538;6.108;2023-08-31T05:56:00;100644.41;;;12.64;100.00
73651;BME280;61944;52.538;6.108;2023-08-31T05:58:33;100644.78;;;12.55;100.00
73651;BME280;61944;52.538;6.108;2023-08-31T06:00:59;100645.59;;;12.59;100.00
73651;BME280;61944;52.538;6.108;2023-08-31T06:03:25;100644.78;;;12.58;100.00
73651;BME280;61944;52.538;6.108;2023-08-31T06:05:50;100649.63;;;12.79;100.00
73651;BME280;61944;52.538;6.108;2023-08-31T06:08:16;100659.66;;;12.80;100.00
73651;BME280;61944;52.538;6.108;2023-08-31T06:10:41;100658.03;;;12.65;100.00
73651;BME280;61944;52.538;6.108;2023-08-31T06:13:07;100667.28;;;12.84;100.00
73651;BME280;61944;52.538;6.108;2023-08-31T06:15:32;100670.50;;;12.78;100.00
73651;BME280;61944;52.538;6.108;2023-08-31T06:17:58;100670.09;;;12.87;100.00
73651;BME280;61944;52.538;6.108;2023-08-31T06:20:23;100668.09;;;12.80;100.00
73651;BME280;61944;52.538;6.108;2023-08-31T06:22:48;100676.13;;;12.86;100.00
73651;BME280;61944;52.538;6.108;2023-08-31T06:25:15;100664.09;;;12.78;100.00
73651;BME280;61944;52.538;6.108;2023-08-31T06:27:43;100669.72;;;12.89;100.00
73651;BME280;61944;52.538;6.108;2023-08-31T06:30:09;100674.56;;;12.99;100.00
73651;BME280;61944;52.538;6.108;2023-08-31T06:32:37;100679.75;;;13.00;100.00
73651;BME280;61944;52.538;6.108;2023-08-31T06:35:03;100684.59;;;13.14;100.00
73651;BME280;61944;52.538;6.108;2023-08-31T06:37:28;100685.00;;;13.20;100.00
73651;BME280;61944;52.538;6.108;2023-08-31T06:39:53;100689.03;;;13.30;100.00
73651;BME280;61944;52.538;6.108;2023-08-31T06:42:19;100684.22;;;13.34;100.00
73651;BME280;61944;52.538;6.108;2023-08-31T06:44:44;100686.22;;;13.30;100.00
73651;BME280;61944;52.538;6.108;2023-08-31T06:47:09;100687.44;;;13.39;100.00
73651;BME280;61944;52.538;6.108;2023-08-31T06:49:35;100693.06;;;13.39;100.00
73651;BME280;61944;52.538;6.108;2023-08-31T06:52:00;100690.25;;;13.39;100.00
73651;BME280;61944;52.538;6.108;2023-08-31T06:54:27;100693.88;;;13.40;100.00
73651;BME280;61944;52.538;6.108;2023-08-31T06:56:53;100701.09;;;13.45;100.00
73651;BME280;61944;52.538;6.108;2023-08-31T06:59:18;100705.53;;;13.46;100.00
73651;BME280;61944;52.538;6.108;2023-08-31T07:01:43;100704.31;;;13.39;100.00
73651;BME280;61944;52.538;6.108;2023-08-31T07:04:09;100711.16;;;13.46;100.00
73651;BME280;61944;52.538;6.108;2023-08-31T07:06:35;100706.72;;;13.48;100.00
73651;BME280;61944;52.538;6.108;2023-08-31T07:09:00;100715.53;;;13.57;100.00
73651;BME280;61944;52.538;6.108;2023-08-31T07:11:26;100711.94;;;13.60;100.00
73651;BME280;61944;52.538;6.108;2023-08-31T07:13:52;100713.94;;;13.63;100.00
73651;BME280;61944;52.538;6.108;2023-08-31T07:16:18;100719.56;;;13.67;100.00
73651;BME280;61944;52.538;6.108;2023-08-31T07:18:43;100715.16;;;13.62;100.00
73651;BME280;61944;52.538;6.108;2023-08-31T07:21:09;100721.97;;;13.69;100.00
73651;BME280;61944;52.538;6.108;2023-08-31T07:23:34;100721.97;;;13.65;100.00
73651;BME280;61944;52.538;6.108;2023-08-31T07:26:00;100722.38;;;13.71;100.00
73651;BME280;61944;52.538;6.108;2023-08-31T07:28:26;100726.00;;;13.75;100.00
73651;BME280;61944;52.538;6.108;2023-08-31T07:31:05;100726.00;;;13.71;100.00
73651;BME280;61944;52.538;6.108;2023-08-31T07:33:32;100730.00;;;13.70;100.00
73651;BME280;61944;52.538;6.108;2023-08-31T07:35:58;100734.41;;;13.82;100.00
73651;BME280;61944;52.538;6.108;2023-08-31T07:38:24;100733.22;;;13.83;100.00
73651;BME280;61944;52.538;6.108;2023-08-31T07:40:51;100735.22;;;13.86;100.00
73651;BME280;61944;52.538;6.108;2023-08-31T07:43:17;100733.59;;;13.92;100.00
73651;BME280;61944;52.538;6.108;2023-08-31T07:45:42;100734.00;;;13.94;100.00
73651;BME280;61944;52.538;6.108;2023-08-31T07:48:07;100735.59;;;14.02;100.00
73651;BME280;61944;52.538;6.108;2023-08-31T07:50:33;100737.63;;;14.02;100.00
73651;BME280;61944;52.538;6.108;2023-08-31T07:52:59;100742.84;;;14.00;100.00
73651;BME280;61944;52.538;6.108;2023-08-31T07:55:25;100738.78;;;14.08;100.00
73651;BME280;61944;52.538;6.108;2023-08-31T07:57:50;100742.38;;;14.16;100.00
73651;BME280;61944;52.538;6.108;2023-08-31T08:00:15;100745.91;;;14.56;100.00
73651;BME280;61944;52.538;6.108;2023-08-31T08:02:41;100733.78;;;14.66;100.00
73651;BME280;61944;52.538;6.108;2023-08-31T08:05:07;100757.06;;;14.84;100.00
73651;BME280;61944;52.538;6.108;2023-08-31T08:07:32;100750.75;;;14.55;100.00
73651;BME280;61944;52.538;6.108;2023-08-31T08:09:58;100755.16;;;14.53;100.00
73651;BME280;61944;52.538;6.108;2023-08-31T08:12:25;100764.22;;;14.96;100.00
73651;BME280;61944;52.538;6.108;2023-08-31T08:14:50;100781.44;;;15.16;100.00
73651;BME280;61944;52.538;6.108;2023-08-31T08:17:16;100773.00;;;15.13;100.00
73651;BME280;61944;52.538;6.108;2023-08-31T08:19:41;100770.63;;;15.04;100.00
73651;BME280;61944;52.538;6.108;2023-08-31T08:22:07;100771.25;;;15.37;100.00
73651;BME280;61944;52.538;6.108;2023-08-31T08:24:32;100777.16;;;15.53;100.00
73651;BME280;61944;52.538;6.108;2023-08-31T08:26:57;100781.72;;;15.89;100.00
73651;BME280;61944;52.538;6.108;2023-08-31T08:29:23;100785.19;;;16.07;100.00
73651;BME280;61944;52.538;6.108;2023-08-31T08:31:48;100779.16;;;16.05;100.00
73651;BME280;61944;52.538;6.108;2023-08-31T08:34:13;100784.00;;;16.04;100.00
73651;BME280;61944;52.538;6.108;2023-08-31T08:36:39;100782.78;;;15.53;100.00
73651;BME280;61944;52.538;6.108;2023-08-31T08:39:04;100775.63;;;16.35;100.00
73651;BME280;61944;52.538;6.108;2023-08-31T08:41:32;100791.25;;;16.05;100.00
73651;BME280;61944;52.538;6.108;2023-08-31T08:44:02;100792.59;;;16.32;100.00
73651;BME280;61944;52.538;6.108;2023-08-31T08:46:30;100785.59;;;16.05;100.00
73651;BME280;61944;52.538;6.108;2023-08-31T08:48:58;100789.53;;;15.74;100.00
73651;BME280;61944;52.538;6.108;2023-08-31T08:51:24;100783.44;;;16.20;100.00
73651;BME280;61944;52.538;6.108;2023-08-31T08:53:50;100801.94;;;16.25;100.00
73651;BME280;61944;52.538;6.108;2023-08-31T08:56:16;100794.88;;;16.06;100.00
73651;BME280;61944;52.538;6.108;2023-08-31T08:58:42;100810.75;;;15.89;100.00
73651;BME280;61944;52.538;6.108;2023-08-31T09:01:07;100811.56;;;16.31;100.00
73651;BME280;61944;52.538;6.108;2023-08-31T09:03:34;100804.22;;;16.41;100.00
73651;BME280;61944;52.538;6.108;2023-08-31T09:06:01;100801.38;;;16.03;100.00
73651;BME280;61944;52.538;6.108;2023-08-31T09:08:28;100820.88;;;15.83;100.00
73651;BME280;61944;52.538;6.108;2023-08-31T09:10:57;100803.44;;;15.95;100.00
73651;BME280;61944;52.538;6.108;2023-08-31T09:13:26;100807.94;;;15.89;100.00
73651;BME280;61944;52.538;6.108;2023-08-31T09:15:54;100805.94;;;15.86;100.00
73651;BME280;61944;52.538;6.108;2023-08-31T09:18:24;100797.88;;;16.30;100.00
73651;BME280;61944;52.538;6.108;2023-08-31T09:20:50;100815.88;;;16.46;100.00
73651;BME280;61944;52.538;6.108;2023-08-31T09:23:16;100810.13;;;16.12;100.00
73651;BME280;61944;52.538;6.108;2023-08-31T09:25:46;100806.69;;;15.94;100.00
73651;BME280;61944;52.538;6.108;2023-08-31T09:28:14;100807.88;;;15.96;100.00
73651;BME280;61944;52.538;6.108;2023-08-31T09:30:40;100807.00;;;16.07;100.00
73651;BME280;61944;52.538;6.108;2023-08-31T09:33:10;100809.13;;;16.33;100.00
73651;BME280;61944;52.538;6.108;2023-08-31T09:35:52;100824.59;;;16.21;100.00
73651;BME280;61944;52.538;6.108;2023-08-31T09:38:18;100832.81;;;16.46;100.00
73651;BME280;61944;52.538;6.108;2023-08-31T09:40:49;100802.25;;;15.93;100.00
73651;BME280;61944;52.538;6.108;2023-08-31T09:43:19;100799.72;;;16.05;100.00
73651;BME280;61944;52.538;6.108;2023-08-31T09:45:46;100802.00;;;16.21;100.00
73651;BME280;61944;52.538;6.108;2023-08-31T09:48:14;100813.47;;;16.03;100.00
73651;BME280;61944;52.538;6.108;2023-08-31T09:50:43;100824.75;;;16.03;100.00
73651;BME280;61944;52.538;6.108;2023-08-31T09:53:10;100814.34;;;15.93;100.00
73651;BME280;61944;52.538;6.108;2023-08-31T09:55:39;100820.38;;;15.95;100.00
73651;BME280;61944;52.538;6.108;2023-08-31T09:58:06;100822.03;;;15.93;100.00
73651;BME280;61944;52.538;6.108;2023-08-31T10:00:35;100785.69;;;15.98;100.00
73651;BME280;61944;52.538;6.108;2023-08-31T10:03:03;100807.84;;;16.41;100.00
73651;BME280;61944;52.538;6.108;2023-08-31T10:05:30;100815.56;;;17.06;100.00
73651;BME280;61944;52.538;6.108;2023-08-31T10:07:57;100825.44;;;16.91;100.00
73651;BME280;61944;52.538;6.108;2023-08-31T10:10:23;100820.94;;;16.97;100.00
73651;BME280;61944;52.538;6.108;2023-08-31T10:12:49;100828.97;;;17.02;100.00
73651;BME280;61944;52.538;6.108;2023-08-31T10:15:17;100811.38;;;17.18;100.00
73651;BME280;61944;52.538;6.108;2023-08-31T10:17:43;100809.50;;;17.35;100.00
73651;BME280;61944;52.538;6.108;2023-08-31T10:20:10;100834.81;;;17.18;100.00
73651;BME280;61944;52.538;6.108;2023-08-31T10:22:37;100824.97;;;17.26;100.00
73651;BME280;61944;52.538;6.108;2023-08-31T10:25:03;100839.97;;;17.54;100.00
73651;BME280;61944;52.538;6.108;2023-08-31T10:27:39;100852.81;;;17.59;100.00
73651;BME280;61944;52.538;6.108;2023-08-31T10:30:31;100851.84;;;17.11;100.00
73651;BME280;61944;52.538;6.108;2023-08-31T10:35:41;100830.69;;;16.92;100.00
73651;BME280;61944;52.538;6.108;2023-08-31T10:38:23;100825.94;;;16.48;100.00
73651;BME280;61944;52.538;6.108;2023-08-31T10:41:03;100831.59;;;16.85;100.00
73651;BME280;61944;52.538;6.108;2023-08-31T10:46:35;100830.19;;;17.01;100.00
73651;BME280;61944;52.538;6.108;2023-08-31T10:51:34;100830.84;;;17.12;100.00
73651;BME280;61944;52.538;6.108;2023-08-31T10:59:45;100832.69;;;17.53;100.00
73651;BME280;61944;52.538;6.108;2023-08-31T11:02:26;100829.59;;;17.44;100.00
73651;BME280;61944;52.538;6.108;2023-08-31T11:04:55;100834.19;;;17.61;100.00
73651;BME280;61944;52.538;6.108;2023-08-31T11:07:25;100832.91;;;17.93;100.00
73651;BME280;61944;52.538;6.108;2023-08-31T11:09:51;100845.88;;;17.91;100.00
73651;BME280;61944;52.538;6.108;2023-08-31T11:12:17;100839.41;;;17.36;100.00
73651;BME280;61944;52.538;6.108;2023-08-31T11:14:42;100848.97;;;16.84;100.00
73651;BME280;61944;52.538;6.108;2023-08-31T11:17:08;100850.59;;;16.43;100.00
73651;BME280;61944;52.538;6.108;2023-08-31T11:19:35;100860.03;;;16.30;100.00
73651;BME280;61944;52.538;6.108;2023-08-31T11:22:01;100855.81;;;16.49;100.00
73651;BME280;61944;52.538;6.108;2023-08-31T11:24:29;100845.31;;;16.45;100.00
73651;BME280;61944;52.538;6.108;2023-08-31T11:26:55;100842.59;;;16.38;100.00
73651;BME280;61944;52.538;6.108;2023-08-31T11:29:20;100845.56;;;16.20;100.00
73651;BME280;61944;52.538;6.108;2023-08-31T11:31:46;100862.34;;;15.93;100.00
73651;BME280;61944;52.538;6.108;2023-08-31T11:34:13;100891.34;;;15.97;100.00
73651;BME280;61944;52.538;6.108;2023-08-31T11:36:39;100896.38;;;15.72;100.00
73651;BME280;61944;52.538;6.108;2023-08-31T11:39:07;100899.59;;;15.67;100.00
73651;BME280;61944;52.538;6.108;2023-08-31T11:41:33;100876.72;;;15.50;100.00
73651;BME280;61944;52.538;6.108;2023-08-31T11:43:59;100862.31;;;15.34;100.00
73651;BME280;61944;52.538;6.108;2023-08-31T11:46:24;100866.69;;;15.45;100.00
73651;BME280;61944;52.538;6.108;2023-08-31T11:48:50;100850.47;;;15.60;100.00
73651;BME280;61944;52.538;6.108;2023-08-31T11:51:16;100865.25;;;15.82;100.00
73651;BME280;61944;52.538;6.108;2023-08-31T11:53:42;100862.69;;;16.02;100.00
73651;BME280;61944;52.538;6.108;2023-08-31T11:56:07;100866.84;;;16.32;100.00
73651;BME280;61944;52.538;6.108;2023-08-31T11:58:32;100863.56;;;16.37;100.00
73651;BME280;61944;52.538;6.108;2023-08-31T12:00:59;100864.19;;;16.56;100.00
73651;BME280;61944;52.538;6.108;2023-08-31T12:03:25;100863.59;;;16.72;100.00
73651;BME280;61944;52.538;6.108;2023-08-31T12:05:52;100867.03;;;16.94;100.00
73651;BME280;61944;52.538;6.108;2023-08-31T12:08:27;100861.59;;;17.10;100.00
73651;BME280;61944;52.538;6.108;2023-08-31T12:10:52;100870.47;;;17.09;100.00
73651;BME280;61944;52.538;6.108;2023-08-31T12:13:18;100869.50;;;17.22;100.00
73651;BME280;61944;52.538;6.108;2023-08-31T12:15:43;100869.22;;;17.13;100.00
73651;BME280;61944;52.538;6.108;2023-08-31T12:18:14;100882.31;;;17.00;100.00
73651;BME280;61944;52.538;6.108;2023-08-31T12:20:54;100878.94;;;16.74;100.00
73651;BME280;61944;52.538;6.108;2023-08-31T12:23:20;100888.75;;;16.62;100.00
73651;BME280;61944;52.538;6.108;2023-08-31T12:25:49;100885.72;;;16.42;100.00
73651;BME280;61944;52.538;6.108;2023-08-31T12:28:16;100901.69;;;16.60;100.00
73651;BME280;61944;52.538;6.108;2023-08-31T12:30:42;100893.13;;;17.05;100.00
73651;BME280;61944;52.538;6.108;2023-08-31T12:33:11;100887.78;;;17.45;100.00
73651;BME280;61944;52.538;6.108;2023-08-31T12:35:36;100890.41;;;17.28;100.00
73651;BME280;61944;52.538;6.108;2023-08-31T12:38:02;100893.34;;;17.52;100.00
73651;BME280;61944;52.538;6.108;2023-08-31T12:40:27;100889.84;;;17.41;100.00
73651;BME280;61944;52.538;6.108;2023-08-31T12:42:52;100905.19;;;17.71;100.00
73651;BME280;61944;52.538;6.108;2023-08-31T12:45:18;100883.97;;;17.59;100.00
73651;BME280;61944;52.538;6.108;2023-08-31T12:47:43;100888.53;;;17.49;100.00
73651;BME280;61944;52.538;6.108;2023-08-31T12:50:09;100887.22;;;17.26;100.00
73651;BME280;61944;52.538;6.108;2023-08-31T12:52:34;100884.59;;;17.12;100.00
73651;BME280;61944;52.538;6.108;2023-08-31T12:55:00;100895.44;;;17.48;100.00
73651;BME280;61944;52.538;6.108;2023-08-31T12:57:25;100905.06;;;17.54;100.00